Time;durP1;ratioP1;P1;durP2;ratioP2;P2;SDS_P1;SDS_P2;PMS_P1;PMS_P2;Temp;Humidity;BMP_temperature;BMP_pressure;BME280_temperature;BME280_humidity;BME280_pressure;Samples;Min_cycle;Max_cycle;Signal;HPM_P1;HPM_P2
2021/09/05 00:00:10;;;;;;;12.73;7.97;;;;;;;13.91;81.62;102151.31;695782;28;1054;-59
2021/09/05 00:00:33;;;;;;;12.88;7.57;;;;;;;13.93;81.66;102152.09;695982;28;1232;-59
2021/09/05 00:00:56;;;;;;;12.50;7.47;;;;;;;13.93;81.75;102153.91;696138;28;1499;-59
2021/09/05 00:01:17;;;;;;;12.80;7.30;;;;;;;13.94;81.79;102156.50;696175;28;891;-59
2021/09/05 00:01:37;;;;;;;12.48;7.72;;;;;;;13.96;81.76;102153.78;696144;28;1062;-59
2021/09/05 00:01:57;;;;;;;11.30;7.30;;;;;;;13.97;81.62;102152.88;696340;28;935;-59
2021/09/05 00:02:17;;;;;;;11.43;7.67;;;;;;;13.98;81.53;102151.97;696310;28;969;-59
2021/09/05 00:02:40;;;;;;;11.98;7.72;;;;;;;14.01;81.30;102154.50;696291;28;1898;-58
2021/09/05 00:03:01;;;;;;;11.55;7.28;;;;;;;13.99;81.22;102151.91;696247;28;884;-59
2021/09/05 00:03:21;;;;;;;11.90;7.27;;;;;;;13.99;81.21;102148.38;696164;28;1331;-59
2021/09/05 00:03:42;;;;;;;13.43;7.90;;;;;;;13.97;81.58;102147.56;696321;28;1021;-59
2021/09/05 00:04:02;;;;;;;12.73;7.63;;;;;;;13.96;81.63;102152.00;696318;28;1019;-59
2021/09/05 00:04:24;;;;;;;12.17;7.40;;;;;;;13.94;81.59;102142.41;696289;28;1387;-59
2021/09/05 00:04:44;;;;;;;11.98;7.50;;;;;;;13.96;81.45;102148.50;696342;28;1409;-59
2021/09/05 00:05:05;;;;;;;12.43;7.70;;;;;;;13.98;81.37;102146.66;696333;28;939;-58
2021/09/05 00:05:25;;;;;;;13.73;7.82;;;;;;;13.98;81.42;102144.00;696384;28;972;-57
2021/09/05 00:05:45;;;;;;;13.75;7.65;;;;;;;14.00;81.29;102139.50;696317;28;895;-57
2021/09/05 00:06:06;;;;;;;13.87;8.30;;;;;;;14.02;81.42;102148.28;696304;28;797;-59
2021/09/05 00:06:27;;;;;;;13.00;7.83;;;;;;;14.01;81.56;102144.78;696380;28;924;-57
2021/09/05 00:06:47;;;;;;;12.63;7.53;;;;;;;14.00;81.45;102148.34;696245;28;856;-57
2021/09/05 00:07:08;;;;;;;12.53;7.80;;;;;;;14.00;81.56;102150.09;696412;28;952;-57
2021/09/05 00:07:28;;;;;;;11.80;7.50;;;;;;;13.99;81.31;102143.09;696369;28;996;-58
2021/09/05 00:07:48;;;;;;;12.67;7.50;;;;;;;13.99;81.34;102143.09;696219;28;860;-57
2021/09/05 00:08:09;;;;;;;13.13;7.37;;;;;;;13.97;81.29;102147.56;696393;28;808;-57
2021/09/05 00:08:29;;;;;;;12.40;7.30;;;;;;;13.98;81.70;102141.38;696387;28;1070;-56
2021/09/05 00:08:52;;;;;;;13.00;7.30;;;;;;;13.97;81.67;102139.59;696289;28;906;-57
2021/09/05 00:09:15;;;;;;;13.80;7.95;;;;;;;13.98;81.51;102146.66;696438;28;878;-56
2021/09/05 00:09:36;;;;;;;13.18;8.13;;;;;;;13.98;81.42;102139.56;696241;28;921;-57
2021/09/05 00:09:56;;;;;;;11.57;7.68;;;;;;;13.98;81.45;102142.22;696295;28;808;-57
2021/09/05 00:10:16;;;;;;;11.67;7.43;;;;;;;13.99;81.34;102153.69;696352;28;876;-57
2021/09/05 00:10:36;;;;;;;13.73;7.80;;;;;;;13.98;81.58;102138.72;696286;28;1210;-57
2021/09/05 00:10:56;;;;;;;12.50;7.50;;;;;;;13.99;81.58;102143.09;696382;28;962;-58
2021/09/05 00:11:20;;;;;;;12.63;7.70;;;;;;;14.00;81.44;102147.47;696402;28;891;-58
2021/09/05 00:11:40;;;;;;;11.93;7.93;;;;;;;14.00;81.49;102145.69;696373;28;877;-57
2021/09/05 00:12:00;;;;;;;12.30;7.83;;;;;;;13.97;81.35;102144.91;696360;28;912;-59
2021/09/05 00:12:21;;;;;;;12.98;7.75;;;;;;;13.94;81.68;102145.06;696289;28;919;-58
2021/09/05 00:12:42;;;;;;;11.37;7.33;;;;;;;13.95;81.69;102141.47;696100;28;781;-58
2021/09/05 00:13:02;;;;;;;12.52;7.50;;;;;;;13.96;81.43;102149.34;696235;28;845;-58
2021/09/05 00:13:23;;;;;;;15.02;8.07;;;;;;;13.95;81.66;102141.47;696213;28;1360;-58
2021/09/05 00:13:43;;;;;;;15.33;8.03;;;;;;;13.95;81.52;102141.47;696316;28;971;-58
2021/09/05 00:14:03;;;;;;;15.13;8.03;;;;;;;13.96;81.64;102143.19;696408;28;836;-58
2021/09/05 00:14:24;;;;;;;13.85;8.15;;;;;;;13.99;81.65;102153.69;695678;28;1305;-58
2021/09/05 00:14:44;;;;;;;12.77;7.57;;;;;;;13.99;81.58;102148.38;696407;28;800;-58
2021/09/05 00:15:06;;;;;;;13.10;7.80;;;;;;;13.96;81.48;102143.19;696343;28;839;-57
2021/09/05 00:15:27;;;;;;;14.60;8.10;;;;;;;13.93;81.58;102149.47;696284;28;1022;-58
2021/09/05 00:15:49;;;;;;;15.27;8.03;;;;;;;13.88;81.59;102140.81;696323;28;821;-58
2021/09/05 00:16:10;;;;;;;12.40;7.80;;;;;;;13.90;81.89;102143.41;696221;28;963;-58
2021/09/05 00:16:30;;;;;;;12.63;7.70;;;;;;;13.87;81.90;102143.53;696335;28;884;-58
2021/09/05 00:16:51;;;;;;;13.20;8.10;;;;;;;13.91;81.83;102142.50;696298;28;800;-58
2021/09/05 00:17:11;;;;;;;12.68;7.97;;;;;;;13.88;81.70;102140.81;696385;28;978;-58
2021/09/05 00:17:32;;;;;;;12.30;7.97;;;;;;;13.86;82.05;102149.72;696204;28;1173;-58
2021/09/05 00:17:52;;;;;;;12.97;7.90;;;;;;;13.86;82.16;102142.66;696265;28;850;-58
2021/09/05 00:18:13;;;;;;;12.00;7.78;;;;;;;13.84;82.24;102144.50;696346;28;879;-58
2021/09/05 00:18:33;;;;;;;11.70;7.97;;;;;;;13.83;82.15;102142.75;696374;28;856;-58
2021/09/05 00:18:53;;;;;;;13.33;8.03;;;;;;;13.85;82.05;102143.56;696293;28;1021;-57
2021/09/05 00:19:13;;;;;;;13.33;7.87;;;;;;;13.86;82.23;102141.78;696315;28;1021;-58
2021/09/05 00:19:37;;;;;;;15.18;8.40;;;;;;;13.86;82.23;102147.09;696374;28;895;-58
2021/09/05 00:19:57;;;;;;;13.50;7.93;;;;;;;13.84;82.29;102147.16;696317;28;1594;-58
2021/09/05 00:20:17;;;;;;;14.43;7.87;;;;;;;13.85;82.25;102146.22;696377;28;958;-58
2021/09/05 00:20:37;;;;;;;12.60;8.00;;;;;;;13.83;82.37;102148.03;696277;28;841;-58
2021/09/05 00:20:58;;;;;;;11.40;7.60;;;;;;;13.83;82.07;102145.41;696413;28;1048;-58
2021/09/05 00:21:18;;;;;;;13.83;8.10;;;;;;;13.85;82.08;102148.00;696383;28;772;-58
2021/09/05 00:21:41;;;;;;;13.35;7.97;;;;;;;13.84;82.36;102148.94;696158;28;975;-58
2021/09/05 00:22:02;;;;;;;15.00;7.75;;;;;;;13.81;82.12;102143.75;696401;28;934;-58
2021/09/05 00:22:22;;;;;;;15.33;7.87;;;;;;;13.82;82.17;102145.47;696261;28;816;-58
2021/09/05 00:22:45;;;;;;;12.97;7.77;;;;;;;13.83;82.29;102147.19;695912;28;1906;-58
2021/09/05 00:23:09;;;;;;;12.73;7.65;;;;;;;13.81;82.19;102143.75;696338;28;1322;-58
2021/09/05 00:23:29;;;;;;;13.43;8.25;;;;;;;13.82;82.09;102137.50;696263;28;970;-58
2021/09/05 00:23:50;;;;;;;13.00;8.00;;;;;;;13.80;82.37;102141.97;696342;28;824;-58
2021/09/05 00:24:10;;;;;;;11.38;7.63;;;;;;;13.80;82.35;102142.88;696382;28;886;-57
2021/09/05 00:24:30;;;;;;;11.60;7.60;;;;;;;13.76;82.35;102147.41;696312;28;864;-58
2021/09/05 00:24:51;;;;;;;11.93;7.90;;;;;;;13.76;82.30;102142.13;696331;28;832;-58
2021/09/05 00:25:11;;;;;;;11.98;7.93;;;;;;;13.75;82.67;102145.66;696333;28;974;-58
2021/09/05 00:25:40;;;;;;;12.77;7.70;;;;;;;13.74;82.61;102143.94;696377;28;835;-58
2021/09/05 00:26:00;;;;;;;12.63;8.05;;;;;;;13.73;82.73;102144.88;696205;28;1312;-57
2021/09/05 00:26:21;;;;;;;14.23;8.07;;;;;;;13.75;82.31;102140.38;696284;28;1038;-57
2021/09/05 00:26:42;;;;;;;13.33;7.80;;;;;;;13.78;82.53;102148.22;696375;28;772;-57
2021/09/05 00:27:05;;;;;;;13.98;7.95;;;;;;;13.77;82.28;102143.84;696242;28;882;-57
2021/09/05 00:27:25;;;;;;;12.93;8.18;;;;;;;13.74;82.56;102143.09;696360;28;825;-58
2021/09/05 00:27:46;;;;;;;12.30;8.20;;;;;;;13.73;82.46;102146.66;696345;28;986;-58
2021/09/05 00:28:06;;;;;;;12.43;8.30;;;;;;;13.71;82.61;102148.47;696386;28;1708;-58
2021/09/05 00:28:26;;;;;;;13.53;8.27;;;;;;;13.68;82.88;102138.84;696352;28;978;-58
2021/09/05 00:28:46;;;;;;;14.25;8.43;;;;;;;13.75;82.59;102145.66;696365;28;919;-58
2021/09/05 00:29:07;;;;;;;13.83;7.90;;;;;;;13.76;82.38;102147.41;696396;28;788;-57
2021/09/05 00:29:27;;;;;;;13.73;7.97;;;;;;;13.75;82.72;102143.03;696358;28;986;-57
2021/09/05 00:29:47;;;;;;;13.30;8.07;;;;;;;13.75;82.46;102145.66;696300;28;895;-58
2021/09/05 00:30:08;;;;;;;13.17;7.77;;;;;;;13.75;82.71;102139.50;696305;28;1298;-58
2021/09/05 00:30:29;;;;;;;12.10;7.97;;;;;;;13.74;82.45;102143.09;696413;28;864;-58
2021/09/05 00:30:49;;;;;;;12.93;8.00;;;;;;;13.76;82.35;102136.81;696292;28;1021;-58
2021/09/05 00:31:09;;;;;;;14.10;7.90;;;;;;;13.77;82.54;102138.53;696351;28;981;-58
2021/09/05 00:31:30;;;;;;;13.57;7.70;;;;;;;13.77;82.37;102142.97;696260;28;863;-58
2021/09/05 00:31:50;;;;;;;13.38;8.05;;;;;;;13.74;82.46;102143.94;696262;28;1018;-58
2021/09/05 00:32:10;;;;;;;13.43;8.10;;;;;;;13.80;82.45;102141.97;696287;28;939;-58
2021/09/05 00:32:30;;;;;;;12.80;8.00;;;;;;;13.76;82.28;102139.47;696380;28;800;-57
2021/09/05 00:32:51;;;;;;;12.80;8.10;;;;;;;13.77;82.45;102142.97;695809;28;1062;-57
2021/09/05 00:33:20;;;;;;;12.57;8.17;;;;;;;13.76;82.44;102142.13;696178;28;1315;-57
2021/09/05 00:33:46;;;;;;;13.38;8.43;;;;;;;13.73;82.45;102136.94;696241;28;951;-58
2021/09/05 00:34:06;;;;;;;13.65;8.10;;;;;;;13.76;82.36;102136.81;696298;28;1005;-57
2021/09/05 00:34:26;;;;;;;12.00;8.37;;;;;;;13.74;82.69;102138.66;696295;28;1199;-58
2021/09/05 00:34:47;;;;;;;13.73;8.13;;;;;;;13.74;82.59;102143.09;696316;28;1072;-58
2021/09/05 00:35:08;;;;;;;14.83;8.23;;;;;;;13.74;82.38;102138.66;696284;28;835;-57
2021/09/05 00:35:28;;;;;;;13.73;8.10;;;;;;;13.71;82.53;102136.09;696352;28;884;-57
2021/09/05 00:35:48;;;;;;;15.18;8.50;;;;;;;13.69;82.77;102140.56;696216;28;1079;-57
2021/09/05 00:36:09;;;;;;;13.77;8.20;;;;;;;13.69;82.88;102137.91;696159;28;914;-56
2021/09/05 00:36:29;;;;;;;13.27;8.20;;;;;;;13.68;82.71;102138.00;696435;28;867;-58
2021/09/05 00:36:49;;;;;;;12.57;8.03;;;;;;;13.66;82.69;102140.69;696331;28;863;-59
2021/09/05 00:37:09;;;;;;;13.38;8.10;;;;;;;13.69;82.71;102137.06;696232;28;828;-58
2021/09/05 00:37:30;;;;;;;12.87;8.00;;;;;;;13.68;82.71;102138.84;696342;28;1030;-57
2021/09/05 00:37:53;;;;;;;13.27;8.55;;;;;;;13.68;82.56;102138.84;696274;28;832;-58
2021/09/05 00:38:13;;;;;;;13.10;8.18;;;;;;;13.63;83.10;102140.81;696140;28;840;-58
2021/09/05 00:38:33;;;;;;;12.75;8.43;;;;;;;13.65;82.76;102144.25;696369;28;983;-58
2021/09/05 00:38:56;;;;;;;14.10;8.20;;;;;;;13.66;82.87;102146.00;696184;28;908;-58
2021/09/05 00:39:16;;;;;;;13.02;7.90;;;;;;;13.61;82.81;102142.63;696218;28;1520;-57
2021/09/05 00:39:36;;;;;;;12.97;8.07;;;;;;;13.60;83.18;102140.91;696360;28;935;-58
2021/09/05 00:39:59;;;;;;;14.53;8.53;;;;;;;13.59;83.24;102136.50;696138;28;883;-58
2021/09/05 00:40:19;;;;;;;13.95;8.30;;;;;;;13.59;83.19;102140.94;696366;28;851;-58
2021/09/05 00:40:40;;;;;;;13.37;8.10;;;;;;;13.61;83.10;102137.31;696457;28;840;-57
2021/09/05 00:41:03;;;;;;;13.63;8.20;;;;;;;13.60;82.89;102145.34;696290;28;1269;-57
2021/09/05 00:41:23;;;;;;;14.75;8.30;;;;;;;13.59;83.08;102138.28;695741;28;1419;-57
2021/09/05 00:41:43;;;;;;;13.03;8.43;;;;;;;13.62;83.12;102139.06;696249;28;978;-57
2021/09/05 00:42:04;;;;;;;13.15;8.75;;;;;;;13.62;83.23;102139.06;696182;28;900;-58
2021/09/05 00:42:29;;;;;;;13.50;8.60;;;;;;;13.61;83.20;102139.13;696396;28;844;-57
2021/09/05 00:42:49;;;;;;;15.70;8.75;;;;;;;13.62;83.20;102139.06;695651;28;1894;-57
2021/09/05 00:43:09;;;;;;;14.10;8.37;;;;;;;13.63;83.00;102137.28;696170;28;1432;-57
2021/09/05 00:43:30;;;;;;;12.50;8.30;;;;;;;13.62;83.17;102143.50;696252;28;860;-58
2021/09/05 00:44:02;;;;;;;13.73;8.47;;;;;;;13.56;83.10;102147.22;696263;28;970;-58
2021/09/05 00:44:22;;;;;;;12.82;8.23;;;;;;;13.58;83.16;102141.88;696342;28;895;-58
2021/09/05 00:44:43;;;;;;;12.30;8.13;;;;;;;13.58;83.11;102144.50;696400;28;898;-58
2021/09/05 00:45:04;;;;;;;12.27;8.00;;;;;;;13.57;83.11;102146.31;696331;28;838;-59
2021/09/05 00:45:27;;;;;;;14.27;8.82;;;;;;;13.57;83.43;102141.00;696171;28;1019;-59
2021/09/05 00:45:47;;;;;;;14.35;8.50;;;;;;;13.57;83.38;102146.31;696196;28;1093;-59
2021/09/05 00:46:07;;;;;;;14.13;8.40;;;;;;;13.58;83.40;102148.03;696238;28;847;-58
2021/09/05 00:46:32;;;;;;;14.63;8.53;;;;;;;13.57;83.48;102148.94;696264;28;899;-59
2021/09/05 00:46:52;;;;;;;13.02;8.57;;;;;;;13.57;83.14;102146.31;696240;28;962;-58
2021/09/05 00:47:12;;;;;;;14.03;8.50;;;;;;;13.59;83.44;102147.09;696191;28;955;-59
2021/09/05 00:47:33;;;;;;;12.93;8.13;;;;;;;13.60;83.55;102146.19;696370;28;828;-59
2021/09/05 00:47:53;;;;;;;12.98;8.35;;;;;;;13.55;83.52;102156.06;696200;28;971;-59
2021/09/05 00:48:13;;;;;;;13.87;8.60;;;;;;;13.52;83.78;102150.88;696151;28;950;-59
2021/09/05 00:48:34;;;;;;;15.43;8.50;;;;;;;13.52;83.56;102148.22;696381;28;880;-59
2021/09/05 00:48:57;;;;;;;13.55;8.38;;;;;;;13.52;83.63;102156.16;696374;28;836;-58
2021/09/05 00:49:18;;;;;;;13.55;8.65;;;;;;;13.55;83.77;102153.41;696320;28;875;-58
2021/09/05 00:49:44;;;;;;;13.93;8.85;;;;;;;13.52;83.78;102149.13;696341;28;816;-58
2021/09/05 00:50:05;;;;;;;13.95;8.82;;;;;;;13.51;83.97;102155.31;696136;28;1026;-58
2021/09/05 00:50:28;;;;;;;13.65;8.80;;;;;;;13.53;83.96;102160.56;696295;28;832;-58
2021/09/05 00:50:48;;;;;;;13.27;8.50;;;;;;;13.53;84.00;102155.28;696251;28;824;-58
2021/09/05 00:51:08;;;;;;;13.10;8.70;;;;;;;13.52;83.68;102156.16;696352;28;879;-58
2021/09/05 00:51:31;;;;;;;12.60;8.50;;;;;;;13.53;83.96;102150.84;696361;28;870;-58
2021/09/05 00:51:52;;;;;;;14.20;8.60;;;;;;;13.49;84.01;102158.94;696060;28;877;-58
2021/09/05 00:52:13;;;;;;;13.65;8.50;;;;;;;13.53;83.85;102155.28;696265;28;845;-58
2021/09/05 00:52:33;;;;;;;13.13;8.40;;;;;;;13.53;83.84;102153.50;696334;28;923;-57
2021/09/05 00:52:57;;;;;;;13.00;8.43;;;;;;;13.54;83.85;102151.69;695841;28;816;-58
2021/09/05 00:53:20;;;;;;;15.82;9.45;;;;;;;13.53;83.85;102156.13;696155;28;1213;-57
2021/09/05 00:53:40;;;;;;;13.85;8.35;;;;;;;13.54;83.87;102151.69;696277;28;825;-57
2021/09/05 00:54:05;;;;;;;13.10;8.20;;;;;;;13.54;83.66;102160.50;696145;28;832;-57
2021/09/05 00:54:25;;;;;;;13.27;8.80;;;;;;;13.54;83.96;102151.69;696244;28;936;-57
2021/09/05 00:54:46;;;;;;;14.50;8.98;;;;;;;13.51;84.07;102150.00;696362;28;935;-58
2021/09/05 00:55:08;;;;;;;14.75;8.60;;;;;;;13.52;83.82;102153.53;696350;28;935;-58
2021/09/05 00:55:33;;;;;;;13.85;8.43;;;;;;;13.53;84.08;102160.56;696160;28;974;-58
2021/09/05 00:56:00;;;;;;;13.48;8.50;;;;;;;13.52;84.07;102156.16;696309;28;886;-59
2021/09/05 00:56:20;;;;;;;13.75;8.85;;;;;;;13.52;83.70;102154.41;696210;28;890;-58
2021/09/05 00:56:43;;;;;;;14.23;8.73;;;;;;;13.48;84.08;102158.06;696362;28;808;-58
2021/09/05 00:57:03;;;;;;;13.27;8.82;;;;;;;13.47;84.09;102147.53;696322;28;840;-58
2021/09/05 00:57:24;;;;;;;14.43;8.35;;;;;;;13.49;84.07;102148.34;696204;28;879;-57
2021/09/05 00:57:46;;;;;;;13.47;8.10;;;;;;;13.52;83.89;102158.81;696303;28;919;-58
2021/09/05 00:58:07;;;;;;;13.85;8.55;;;;;;;13.47;83.62;102152.81;696190;28;820;-58
2021/09/05 00:58:30;;;;;;;13.70;8.60;;;;;;;13.44;83.79;102155.56;695908;28;1357;-58
2021/09/05 00:58:54;;;;;;;14.30;8.60;;;;;;;13.45;83.81;102152.84;696293;28;899;-57
2021/09/05 00:59:19;;;;;;;14.43;8.50;;;;;;;13.42;84.14;102147.69;696179;28;922;-57
2021/09/05 00:59:40;;;;;;;13.68;8.60;;;;;;;13.42;84.07;102145.03;696316;28;883;-58
2021/09/05 01:00:04;;;;;;;15.80;8.90;;;;;;;13.39;83.85;102146.94;695988;28;1175;-57
2021/09/05 01:00:25;;;;;;;14.10;8.45;;;;;;;13.39;84.24;102152.22;696276;28;867;-58
2021/09/05 01:00:46;;;;;;;14.73;8.52;;;;;;;13.38;84.01;102150.47;696299;28;1000;-59
2021/09/05 01:01:06;;;;;;;13.93;8.40;;;;;;;13.39;84.11;102150.44;696219;28;918;-58
2021/09/05 01:01:26;;;;;;;13.20;8.40;;;;;;;13.34;83.85;102149.69;696373;28;864;-57
2021/09/05 01:01:46;;;;;;;13.03;8.50;;;;;;;13.33;84.05;102141.81;696266;28;875;-58
2021/09/05 01:02:07;;;;;;;14.73;8.80;;;;;;;13.33;84.06;102147.13;696224;28;856;-58
2021/09/05 01:02:27;;;;;;;13.48;8.45;;;;;;;13.35;84.11;102150.56;696242;28;808;-58
2021/09/05 01:02:48;;;;;;;13.53;8.63;;;;;;;13.32;84.06;102148.00;695736;28;1996;-57
2021/09/05 01:03:08;;;;;;;14.43;8.50;;;;;;;13.31;84.23;102149.78;696255;28;1349;-58
2021/09/05 01:03:31;;;;;;;12.33;8.20;;;;;;;13.33;84.13;102152.41;696383;28;913;-58
2021/09/05 01:04:01;;;;;;;14.02;8.75;;;;;;;13.34;84.33;102147.06;696173;28;924;-58
2021/09/05 01:04:24;;;;;;;13.57;8.85;;;;;;;13.33;84.16;102147.97;696169;28;1093;-57
2021/09/05 01:04:45;;;;;;;13.82;8.55;;;;;;;13.34;84.03;102146.19;696307;28;1014;-57
2021/09/05 01:05:07;;;;;;;14.00;8.50;;;;;;;13.38;83.92;102151.31;696244;28;1053;-59
2021/09/05 01:05:27;;;;;;;14.18;8.73;;;;;;;13.36;84.02;102147.03;695611;28;1357;-58
2021/09/05 01:05:47;;;;;;;14.83;8.87;;;;;;;13.32;83.73;102151.56;696224;28;1038;-58
2021/09/05 01:06:07;;;;;;;13.23;8.23;;;;;;;13.33;83.89;102141.81;696286;28;986;-58
2021/09/05 01:06:28;;;;;;;13.20;8.38;;;;;;;13.33;84.01;102145.34;696176;28;1006;-58
2021/09/05 01:06:52;;;;;;;13.00;8.10;;;;;;;13.29;84.13;102149.88;696380;28;821;-59
2021/09/05 01:07:12;;;;;;;12.88;8.48;;;;;;;13.32;83.97;102146.25;696243;28;927;-58
2021/09/05 01:07:33;;;;;;;13.80;8.50;;;;;;;13.35;83.88;102155.84;696309;28;863;-57
2021/09/05 01:07:53;;;;;;;14.10;8.60;;;;;;;13.32;83.87;102151.56;696297;28;845;-57
2021/09/05 01:08:13;;;;;;;13.32;8.68;;;;;;;13.32;84.23;102150.66;696259;28;872;-57
2021/09/05 01:08:44;;;;;;;14.13;8.70;;;;;;;13.30;84.16;102151.59;696282;28;903;-57
2021/09/05 01:09:05;;;;;;;14.23;8.70;;;;;;;13.31;84.00;102152.44;696315;28;915;-58
2021/09/05 01:09:27;;;;;;;13.98;8.82;;;;;;;13.30;84.11;102153.38;696318;28;983;-58
2021/09/05 01:09:48;;;;;;;14.65;9.23;;;;;;;13.28;84.56;102156.09;696382;28;958;-58
2021/09/05 01:10:14;;;;;;;14.00;9.00;;;;;;;13.29;84.45;102160.44;696128;28;972;-58
2021/09/05 01:10:34;;;;;;;14.20;9.02;;;;;;;13.28;84.35;102153.44;696331;28;871;-57
2021/09/05 01:10:54;;;;;;;12.80;8.82;;;;;;;13.28;84.35;102156.09;696184;28;1160;-58
2021/09/05 01:11:15;;;;;;;14.03;9.00;;;;;;;13.30;84.45;102154.22;696220;28;995;-58
2021/09/05 01:11:37;;;;;;;13.82;8.35;;;;;;;13.32;84.10;102154.19;696307;28;1086;-58
2021/09/05 01:11:58;;;;;;;13.38;8.60;;;;;;;13.28;84.51;102153.44;696217;28;860;-58
2021/09/05 01:12:19;;;;;;;14.07;9.18;;;;;;;13.29;84.57;102152.50;696265;28;959;-58
2021/09/05 01:12:58;;;;;;;13.82;9.07;;;;;;;13.26;84.27;102152.59;696152;28;978;-59
2021/09/05 01:13:18;;;;;;;13.95;8.27;;;;;;;13.23;84.70;102155.31;696425;28;852;-58
2021/09/05 01:13:42;;;;;;;15.13;8.30;;;;;;;13.23;84.48;102157.97;696425;28;856;-58
2021/09/05 01:14:07;;;;;;;14.27;8.73;;;;;;;13.24;84.56;102154.41;696258;28;959;-58
2021/09/05 01:14:28;;;;;;;14.18;9.18;;;;;;;13.26;84.53;102157.03;696284;28;897;-58
2021/09/05 01:14:48;;;;;;;14.45;8.95;;;;;;;13.26;84.57;102157.91;696288;28;998;-57
2021/09/05 01:15:11;;;;;;;13.63;8.80;;;;;;;13.25;84.22;102155.31;696263;28;1045;-57
2021/09/05 01:15:34;;;;;;;14.15;8.85;;;;;;;13.26;84.19;102154.38;696290;28;843;-57
2021/09/05 01:15:54;;;;;;;14.68;9.30;;;;;;;13.27;84.49;102156.97;696463;28;975;-59
2021/09/05 01:16:41;;;;;;;14.47;9.20;;;;;;;13.29;84.38;102157.81;696285;28;1037;-60
2021/09/05 01:17:02;;;;;;;14.13;8.55;;;;;;;13.32;84.20;102150.66;695069;28;1911;-57
2021/09/05 01:17:23;;;;;;;14.93;8.75;;;;;;;13.28;84.03;102155.19;696257;28;829;-57
2021/09/05 01:17:43;;;;;;;14.20;8.77;;;;;;;13.25;84.36;102150.88;696339;28;1023;-58
2021/09/05 01:18:03;;;;;;;13.80;8.80;;;;;;;13.22;84.35;102155.38;696265;28;935;-58
2021/09/05 01:18:24;;;;;;;16.40;8.97;;;;;;;13.27;84.36;102156.97;696269;28;808;-58
2021/09/05 01:18:44;;;;;;;17.53;9.43;;;;;;;13.28;84.01;102155.19;696430;28;889;-58
2021/09/05 01:19:12;;;;;;;15.27;9.27;;;;;;;13.25;84.13;102150.88;696294;28;975;-58
2021/09/05 01:19:33;;;;;;;12.98;8.85;;;;;;;13.27;84.28;102153.47;696286;28;909;-57
2021/09/05 01:19:53;;;;;;;13.40;8.95;;;;;;;13.21;84.22;102149.22;696475;28;965;-58
2021/09/05 01:20:16;;;;;;;14.63;9.97;;;;;;;13.25;84.05;102150.88;696089;28;1050;-57
2021/09/05 01:20:37;;;;;;;15.38;9.27;;;;;;;13.27;83.86;102151.69;696338;28;1124;-58
2021/09/05 01:20:57;;;;;;;16.48;9.52;;;;;;;13.28;84.10;102147.25;696296;28;1027;-58
2021/09/05 01:21:17;;;;;;;15.43;8.70;;;;;;;13.24;83.97;102154.41;696371;28;942;-58
2021/09/05 01:21:39;;;;;;;14.33;8.80;;;;;;;13.25;84.09;102145.59;696273;28;935;-58
2021/09/05 01:21:59;;;;;;;13.25;9.18;;;;;;;13.22;84.25;102152.72;696188;28;970;-58
2021/09/05 01:22:19;;;;;;;13.70;9.00;;;;;;;13.16;84.32;102150.28;696119;28;1034;-57
2021/09/05 01:22:40;;;;;;;14.82;8.93;;;;;;;13.16;84.20;102153.78;696045;28;1916;-57
2021/09/05 01:23:01;;;;;;;13.43;9.17;;;;;;;13.17;84.65;102155.50;695876;28;1269;-57
2021/09/05 01:23:21;;;;;;;14.05;9.18;;;;;;;13.21;84.15;102154.50;696234;28;999;-57
2021/09/05 01:23:44;;;;;;;14.50;8.97;;;;;;;13.21;84.33;102148.31;696402;28;887;-57
2021/09/05 01:24:06;;;;;;;15.65;8.85;;;;;;;13.17;84.18;102146.69;696180;28;896;-58
2021/09/05 01:24:26;;;;;;;14.43;9.02;;;;;;;13.14;84.35;102147.66;696219;28;861;-57
2021/09/05 01:24:46;;;;;;;13.50;8.60;;;;;;;13.15;84.17;102146.75;696350;28;867;-57
2021/09/05 01:25:07;;;;;;;15.20;9.03;;;;;;;13.17;84.19;102154.63;696255;28;848;-57
2021/09/05 01:25:27;;;;;;;14.15;9.10;;;;;;;13.14;84.43;102147.66;696269;28;840;-57
2021/09/05 01:25:48;;;;;;;15.77;9.27;;;;;;;13.13;84.44;102139.78;696199;28;999;-57
2021/09/05 01:26:08;;;;;;;14.80;9.10;;;;;;;13.16;84.17;102151.13;696266;28;891;-57
2021/09/05 01:26:31;;;;;;;14.18;8.93;;;;;;;13.15;84.30;102146.75;696173;28;1005;-58
2021/09/05 01:26:52;;;;;;;14.35;9.10;;;;;;;13.13;84.68;102145.06;696270;28;819;-58
2021/09/05 01:27:12;;;;;;;15.05;9.13;;;;;;;13.11;84.58;102152.19;696218;28;894;-57
2021/09/05 01:27:33;;;;;;;14.97;9.23;;;;;;;13.09;84.85;102148.75;696139;28;833;-58
2021/09/05 01:27:53;;;;;;;14.25;8.98;;;;;;;13.07;84.89;102151.41;696404;28;812;-58
2021/09/05 01:28:13;;;;;;;14.10;9.07;;;;;;;13.05;84.64;102147.97;696271;28;835;-57
2021/09/05 01:28:34;;;;;;;14.07;9.32;;;;;;;13.06;84.83;102149.69;696205;28;867;-57
2021/09/05 01:28:54;;;;;;;14.20;9.27;;;;;;;13.09;84.83;102148.75;696372;28;927;-57
2021/09/05 01:29:15;;;;;;;14.43;9.13;;;;;;;13.10;84.58;102151.31;695727;28;1270;-56
2021/09/05 01:29:46;;;;;;;14.70;9.18;;;;;;;13.08;84.42;102150.53;696207;28;950;-58
2021/09/05 01:30:07;;;;;;;14.27;8.75;;;;;;;13.12;84.40;102149.50;696234;28;828;-57
2021/09/05 01:30:27;;;;;;;14.18;9.00;;;;;;;13.12;84.33;102146.84;696171;28;824;-57
2021/09/05 01:30:48;;;;;;;14.07;9.13;;;;;;;13.12;84.69;102149.50;696320;28;995;-58
2021/09/05 01:31:08;;;;;;;14.20;8.80;;;;;;;13.11;84.54;102141.59;696077;28;1133;-58
2021/09/05 01:31:44;;;;;;;14.37;8.83;;;;;;;13.13;84.39;102151.22;696284;28;831;-57
2021/09/05 01:32:04;;;;;;;15.10;9.55;;;;;;;13.11;84.57;102147.78;696174;28;873;-58
2021/09/05 01:32:25;;;;;;;15.30;9.00;;;;;;;13.10;84.45;102147.81;696064;28;1223;-58
2021/09/05 01:32:45;;;;;;;14.40;9.07;;;;;;;13.11;84.50;102152.19;695299;28;1038;-58
2021/09/05 01:33:05;;;;;;;13.75;8.80;;;;;;;13.05;84.48;102147.97;696154;28;1385;-59
2021/09/05 01:33:26;;;;;;;13.03;8.80;;;;;;;13.05;84.81;102150.63;694891;28;1208;-58
2021/09/05 01:33:47;;;;;;;13.63;9.13;;;;;;;13.08;84.78;102150.53;696348;28;879;-59
2021/09/05 01:34:08;;;;;;;14.30;9.35;;;;;;;13.07;84.56;102141.72;696118;28;856;-59
2021/09/05 01:34:29;;;;;;;14.02;9.18;;;;;;;13.06;84.68;102147.91;696122;28;931;-59
2021/09/05 01:34:52;;;;;;;14.00;9.43;;;;;;;13.06;84.81;102154.97;695649;28;1332;-59
2021/09/05 01:35:14;;;;;;;13.35;9.48;;;;;;;13.06;84.72;102154.97;696206;28;882;-57
2021/09/05 01:35:38;;;;;;;14.00;8.95;;;;;;;13.02;84.80;102148.06;696215;28;855;-57
2021/09/05 01:35:58;;;;;;;14.43;9.02;;;;;;;13.01;84.98;102151.63;696279;28;1029;-57
2021/09/05 01:36:18;;;;;;;15.97;9.37;;;;;;;12.99;84.64;102153.44;696119;28;1027;-57
2021/09/05 01:36:39;;;;;;;14.30;9.20;;;;;;;13.00;84.88;102156.03;696185;28;823;-57
2021/09/05 01:37:00;;;;;;;14.00;8.95;;;;;;;13.01;84.79;102156.94;696258;28;923;-58
2021/09/05 01:37:20;;;;;;;14.50;9.53;;;;;;;12.99;84.68;102156.09;696248;28;883;-57
2021/09/05 01:37:43;;;;;;;15.07;9.48;;;;;;;13.01;84.67;102157.78;696134;28;876;-58
2021/09/05 01:38:04;;;;;;;13.93;8.90;;;;;;;12.97;84.71;102149.97;696047;28;1515;-57
2021/09/05 01:38:24;;;;;;;13.20;8.93;;;;;;;12.95;84.83;102151.81;696202;28;855;-57
2021/09/05 01:38:44;;;;;;;13.90;8.97;;;;;;;12.95;84.96;102152.69;696189;28;936;-58
2021/09/05 01:39:06;;;;;;;13.95;9.07;;;;;;;12.97;85.21;102149.97;696229;28;892;-57
2021/09/05 01:39:26;;;;;;;14.15;8.93;;;;;;;12.98;84.80;102151.72;696104;28;1015;-58
2021/09/05 01:39:47;;;;;;;15.80;9.02;;;;;;;12.98;84.87;102149.06;696272;28;947;-57
2021/09/05 01:40:10;;;;;;;15.87;9.17;;;;;;;12.95;85.11;102157.09;696238;28;822;-57
2021/09/05 01:40:31;;;;;;;13.88;9.05;;;;;;;12.95;85.04;102149.16;696071;28;1058;-57
2021/09/05 01:40:51;;;;;;;15.17;8.97;;;;;;;12.93;85.29;102145.69;696348;28;1048;-58
2021/09/05 01:41:11;;;;;;;15.45;9.27;;;;;;;12.94;84.90;102150.94;696241;28;958;-57
2021/09/05 01:41:31;;;;;;;13.90;8.97;;;;;;;12.93;85.18;102150.97;696326;28;812;-57
2021/09/05 01:41:52;;;;;;;14.10;9.27;;;;;;;12.92;85.19;102151.91;696141;28;899;-58